Aérodrome :
LOGIN :

S'inscrire | Disclaimer

   EN    FR    IT 

 










Légende :    VFR   VFR Marginal   IFR   IFR Intensif   IFR Très Intensif
Visi : 
Plafond : 
>= 8 km
>= 3000ft
5 à 8 km
1000 à 3000 ft
1500m à 5 km
500 à 1000 ft
800 à 1500m
200 à 500 ft
< 800m
< 200 ft
Symboles :   Orages  Brouillard  Fortes neiges  Fortes précipitations  Vent > 20 kt
SIGMETs :   Divers  Orages  Givrage  Turbulence  Onde Orograph.  Cendres Volcan.







- Altitude de l'aérodrome : 308 ft
- Code IATA : MHG


EDFM - Mannheim-City

DERNIER METAR :
  • 210850Z 28010KT 250V310 6000 -RA FEW004 BKN011 13/12 Q1009

METARs EXPIRÉS :
  • 210820Z 28010KT 9999 3600/ -RA SCT011 BKN013 13/12 Q1008
  • 210750Z 28010KT 250V310 5000 -RA BKN011 13/12 Q1008
  • 210720Z 26011KT 6000 -RA FEW009 SCT037 13/12 Q1008
  • 210650Z 26010KT 7000 -RA FEW008 BKN020 13/12 Q1007
  • 210620Z 26008KT 6000 -RA SCT009 SCT017 BKN022 13/12 Q1008

TAF TAF EDFM
Valide du 21 à 09h jusqu'au 21 à 18h UTC


210800Z 2109/2118 28010G20KT 5000 -RA BR BKN015
TEMPO 2109/2118 4000 RA BR OVC010
Pas de NOTAMs connus pour ce terrain.



MET'MAP, la Météo Aéronautique d'un coup d'oeil ! - Copyright ORBIFLY Décembre 2007 - Disclaimer

ORBIFLY MET'MAP TEAM :

Programmation & Développement : Alexandra Zaïnal
Conception & Développement : Baudouin d'Aumeries
Co-Programmation & Développement : Marc-Olivier Méhu
Soutien technique & logistique : Manuel Goepfert

Contact : metmap@orbifly.com




SOURCES & CREDITS :

   NOAA